Time;durP1;ratioP1;P1;durP2;ratioP2;P2;SDS_P1;SDS_P2;PMS_P1;PMS_P2;Temp;Humidity;BMP_temperature;BMP_pressure;BME280_temperature;BME280_humidity;BME280_pressure;Samples;Min_cycle;Max_cycle;Signal;HPM_P1;HPM_P2
2023/12/12 00:00:46;;;;;;;7.20;3.90;;;;;;;;;;108211;1251;59299;-80
2023/12/12 00:03:32;;;;;;;6.40;4.80;;;;;;;;;;107081;1251;62092;-80
2023/12/12 00:05:59;;;;;;;8.20;5.30;;;;;;;;;;107233;1251;60833;-79
2023/12/12 00:08:25;;;;;;;9.70;6.70;;;;;;;;;;107123;1255;59867;-80
2023/12/12 00:10:52;;;;;;;11.70;7.00;;;;;;;;;;107096;1251;59923;-79
2023/12/12 00:13:19;;;;;;;8.80;6.30;;;;;;;;;;107094;1251;59882;-79
2023/12/12 00:15:45;;;;;;;9.20;6.30;;;;;;;;;;107159;1251;61138;-79
2023/12/12 00:18:12;;;;;;;10.00;5.90;;;;;;;;;;107121;1251;60928;-79
2023/12/12 00:20:38;;;;;;;16.60;13.50;;;;;;;;;;107165;1251;59829;-79
2023/12/12 00:23:05;;;;;;;8.90;5.50;;;;;;;;;;107134;1250;61654;-79
2023/12/12 00:25:32;;;;;;;13.30;7.30;;;;;;;;;;107157;1251;59840;-78
2023/12/12 00:27:58;;;;;;;8.70;5.30;;;;;;;;;;107258;1251;62038;-78
2023/12/12 00:30:25;;;;;;;11.60;8.10;;;;;;;;;;107099;1251;61334;-79
2023/12/12 00:32:51;;;;;;;10.40;6.00;;;;;;;;;;107093;1251;60832;-79
2023/12/12 00:35:18;;;;;;;11.70;5.70;;;;;;;;;;107171;1251;59737;-79
2023/12/12 00:37:44;;;;;;;11.40;5.40;;;;;;;;;;107343;1251;59647;-79
2023/12/12 00:40:11;;;;;;;9.40;4.60;;;;;;;;;;107116;1251;60884;-78
2023/12/12 00:42:37;;;;;;;7.10;4.90;;;;;;;;;;107134;1251;59957;-79
2023/12/12 00:45:06;;;;;;;8.70;3.90;;;;;;;;;;107105;1251;59908;-79
2023/12/12 00:47:33;;;;;;;12.50;4.30;;;;;;;;;;109538;1251;62609;-79
2023/12/12 00:49:59;;;;;;;10.50;4.80;;;;;;;;;;109545;1251;59089;-79
2023/12/12 00:52:26;;;;;;;6.40;4.20;;;;;;;;;;109101;1251;60635;-79
2023/12/12 00:54:52;;;;;;;11.00;4.60;;;;;;;;;;107214;1251;60727;-79
2023/12/12 00:57:21;;;;;;;9.80;5.90;;;;;;;;;;107374;1251;60674;-79
2023/12/12 00:59:48;;;;;;;8.80;7.00;;;;;;;;;;107059;1253;60898;-79
2023/12/12 01:02:14;;;;;;;11.90;6.80;;;;;;;;;;107109;1252;60748;-79
2023/12/12 01:04:41;;;;;;;9.10;4.90;;;;;;;;;;107106;1253;60816;-78
2023/12/12 01:07:08;;;;;;;8.20;3.90;;;;;;;;;;107233;1252;59795;-78
2023/12/12 01:09:34;;;;;;;4.90;3.10;;;;;;;;;;107061;1251;60966;-78
2023/12/12 01:12:01;;;;;;;6.40;3.70;;;;;;;;;;106981;1252;62595;-79
2023/12/12 01:14:27;;;;;;;5.10;3.10;;;;;;;;;;108304;1252;61037;-79
2023/12/12 01:16:54;;;;;;;5.20;3.30;;;;;;;;;;109405;1251;58894;-79
2023/12/12 01:19:20;;;;;;;9.20;4.20;;;;;;;;;;109471;1251;58910;-79
2023/12/12 01:21:47;;;;;;;10.10;5.00;;;;;;;;;;109551;1251;58773;-79
2023/12/12 01:24:13;;;;;;;9.70;4.30;;;;;;;;;;109538;1252;62090;-79
2023/12/12 01:26:40;;;;;;;6.00;4.10;;;;;;;;;;109540;1251;58938;-79
2023/12/12 01:29:06;;;;;;;8.50;5.70;;;;;;;;;;109510;1253;59031;-80
2023/12/12 01:31:33;;;;;;;7.70;5.40;;;;;;;;;;109539;1250;59095;-79
2023/12/12 01:33:59;;;;;;;10.40;6.30;;;;;;;;;;109517;1251;58951;-79
2023/12/12 01:36:26;;;;;;;7.50;4.20;;;;;;;;;;109558;1250;58926;-79
2023/12/12 01:38:52;;;;;;;9.60;5.60;;;;;;;;;;109564;1251;58931;-79
2023/12/12 01:41:19;;;;;;;7.90;4.60;;;;;;;;;;109523;1251;59573;-78
2023/12/12 01:43:45;;;;;;;10.30;4.80;;;;;;;;;;107902;1252;61224;-78
2023/12/12 01:46:13;;;;;;;9.20;4.50;;;;;;;;;;107126;1251;59730;-78
2023/12/12 01:48:40;;;;;;;13.60;4.80;;;;;;;;;;107190;1251;61623;-78
2023/12/12 01:51:07;;;;;;;7.20;4.60;;;;;;;;;;107100;1255;59702;-79
2023/12/12 01:53:37;;;;;;;7.50;4.60;;;;;;;;;;107140;1251;60908;-79
2023/12/12 01:56:04;;;;;;;10.40;5.00;;;;;;;;;;107284;1251;62150;-79
2023/12/12 01:58:30;;;;;;;8.10;5.70;;;;;;;;;;107827;1251;60986;-79
2023/12/12 02:00:57;;;;;;;8.90;6.70;;;;;;;;;;109523;1251;58798;-78
2023/12/12 02:03:23;;;;;;;7.10;4.60;;;;;;;;;;109420;1252;59037;-79
2023/12/12 02:05:50;;;;;;;11.50;3.80;;;;;;;;;;109488;1251;59574;-79
2023/12/12 02:08:16;;;;;;;8.40;4.00;;;;;;;;;;109395;1251;58897;-79
2023/12/12 02:10:44;;;;;;;6.30;3.90;;;;;;;;;;109497;1251;59313;-78
2023/12/12 02:13:12;;;;;;;10.70;6.60;;;;;;;;;;109509;1251;63019;-79
2023/12/12 02:15:38;;;;;;;9.00;3.90;;;;;;;;;;109497;1251;59231;-78
2023/12/12 02:18:05;;;;;;;8.80;5.40;;;;;;;;;;109475;1251;59035;-79
2023/12/12 02:20:31;;;;;;;7.60;5.10;;;;;;;;;;109480;1251;59368;-80
2023/12/12 02:22:58;;;;;;;6.80;4.40;;;;;;;;;;109537;1251;59186;-79
2023/12/12 02:25:24;;;;;;;4.80;3.40;;;;;;;;;;109543;1251;58878;-79
2023/12/12 02:27:50;;;;;;;9.70;4.70;;;;;;;;;;109536;1251;59123;-79
2023/12/12 02:30:17;;;;;;;12.30;5.80;;;;;;;;;;109558;1251;58897;-79
2023/12/12 02:32:44;;;;;;;10.30;6.40;;;;;;;;;;109559;1251;58904;-78
2023/12/12 02:35:10;;;;;;;7.40;4.50;;;;;;;;;;109539;1251;59068;-80
2023/12/12 02:37:37;;;;;;;14.20;5.30;;;;;;;;;;109558;1251;59809;-79
2023/12/12 02:40:03;;;;;;;7.40;4.40;;;;;;;;;;108688;1251;59184;-79
2023/12/12 02:42:30;;;;;;;5.50;4.30;;;;;;;;;;107142;1251;59812;-79
2023/12/12 02:44:57;;;;;;;4.90;3.50;;;;;;;;;;107137;1250;59845;-79
2023/12/12 02:47:23;;;;;;;9.20;5.00;;;;;;;;;;107316;1251;60848;-79
2023/12/12 02:49:50;;;;;;;5.40;3.60;;;;;;;;;;107183;1251;62556;-78
2023/12/12 02:52:17;;;;;;;6.90;4.60;;;;;;;;;;107128;1253;59441;-78
2023/12/12 02:54:43;;;;;;;13.50;4.60;;;;;;;;;;107152;1251;59724;-79
2023/12/12 02:57:09;;;;;;;8.50;6.10;;;;;;;;;;107280;1251;60160;-79
2023/12/12 02:59:36;;;;;;;7.80;5.50;;;;;;;;;;107077;1252;59745;-79
2023/12/12 03:02:02;;;;;;;8.30;4.30;;;;;;;;;;107052;1253;60758;-78
2023/12/12 03:04:29;;;;;;;22.80;10.10;;;;;;;;;;107108;1251;60874;-80
2023/12/12 03:06:55;;;;;;;47.00;21.10;;;;;;;;;;107319;1251;59771;-78
2023/12/12 03:09:22;;;;;;;25.90;12.80;;;;;;;;;;107080;1251;59817;-79
2023/12/12 03:11:51;;;;;;;10.50;5.40;;;;;;;;;;107074;1253;59742;-79
2023/12/12 03:14:19;;;;;;;10.80;7.40;;;;;;;;;;107075;1252;62907;-79
2023/12/12 03:16:45;;;;;;;10.70;8.00;;;;;;;;;;107221;1251;59771;-79
2023/12/12 03:19:11;;;;;;;10.30;6.10;;;;;;;;;;108360;1252;59810;-79
2023/12/12 03:21:38;;;;;;;9.00;6.00;;;;;;;;;;109547;1251;59193;-78
2023/12/12 03:24:04;;;;;;;9.50;5.70;;;;;;;;;;109495;1252;59174;-78
2023/12/12 03:26:31;;;;;;;10.90;6.60;;;;;;;;;;109440;1252;58947;-78
2023/12/12 03:28:57;;;;;;;8.20;5.90;;;;;;;;;;109450;1253;58983;-78
2023/12/12 03:31:24;;;;;;;8.00;5.50;;;;;;;;;;109499;1251;59154;-79
2023/12/12 03:33:50;;;;;;;8.20;5.40;;;;;;;;;;107046;1253;59896;-79
2023/12/12 03:36:17;;;;;;;8.00;5.10;;;;;;;;;;107280;1252;60648;-78
2023/12/12 03:38:44;;;;;;;8.20;4.70;;;;;;;;;;107084;1252;61823;-79
2023/12/12 03:41:10;;;;;;;9.80;4.60;;;;;;;;;;109457;1253;59226;-79
2023/12/12 03:43:37;;;;;;;7.60;4.60;;;;;;;;;;107059;1253;60846;-79
2023/12/12 03:46:04;;;;;;;7.90;5.60;;;;;;;;;;107100;1253;60851;-79
2023/12/12 03:48:31;;;;;;;7.50;5.90;;;;;;;;;;107145;1253;60898;-79
2023/12/12 03:50:57;;;;;;;11.50;5.20;;;;;;;;;;107116;1252;61957;-80
2023/12/12 03:53:24;;;;;;;9.90;7.50;;;;;;;;;;106985;1253;59689;-78
2023/12/12 03:55:50;;;;;;;8.50;4.50;;;;;;;;;;107241;1251;60833;-79
2023/12/12 03:58:17;;;;;;;8.80;6.10;;;;;;;;;;107146;1252;60914;-78
2023/12/12 04:00:43;;;;;;;7.50;5.50;;;;;;;;;;107084;1252;59228;-78
2023/12/12 04:03:10;;;;;;;6.90;4.80;;;;;;;;;;107087;1253;59721;-79
2023/12/12 04:05:37;;;;;;;8.40;5.30;;;;;;;;;;107125;1251;59872;-78
2023/12/12 04:08:04;;;;;;;6.40;3.80;;;;;;;;;;107199;1253;60545;-78
2023/12/12 04:10:30;;;;;;;6.30;3.90;;;;;;;;;;107071;1251;60870;-79
2023/12/12 04:12:57;;;;;;;11.20;8.00;;;;;;;;;;107123;1251;59655;-79
2023/12/12 04:15:23;;;;;;;25.20;20.70;;;;;;;;;;107169;1251;60869;-78
2023/12/12 04:17:50;;;;;;;13.70;8.60;;;;;;;;;;107182;1251;60783;-78
2023/12/12 04:20:17;;;;;;;13.60;5.80;;;;;;;;;;107087;1251;60910;-78
2023/12/12 04:22:43;;;;;;;12.70;6.20;;;;;;;;;;107151;1251;60314;-79
2023/12/12 04:25:13;;;;;;;8.70;5.30;;;;;;;;;;107166;1251;59803;-78
2023/12/12 04:27:40;;;;;;;6.80;4.70;;;;;;;;;;107368;1251;62882;-79
2023/12/12 04:30:07;;;;;;;6.00;4.70;;;;;;;;;;107106;1252;59791;-79
2023/12/12 04:32:33;;;;;;;6.80;4.60;;;;;;;;;;107119;1250;59889;-78
2023/12/12 04:35:00;;;;;;;15.20;11.10;;;;;;;;;;107220;1251;60862;-78
2023/12/12 04:37:26;;;;;;;7.10;5.20;;;;;;;;;;107234;1254;61198;-78
2023/12/12 04:39:53;;;;;;;8.30;5.70;;;;;;;;;;107153;1251;63012;-79
2023/12/12 04:42:20;;;;;;;9.20;4.90;;;;;;;;;;107168;1251;59831;-79
2023/12/12 04:44:47;;;;;;;11.10;5.90;;;;;;;;;;107140;1251;60736;-79
2023/12/12 04:47:13;;;;;;;26.00;15.50;;;;;;;;;;107317;1251;59286;-79
2023/12/12 04:49:40;;;;;;;20.70;11.10;;;;;;;;;;108896;1251;59204;-79
2023/12/12 04:52:06;;;;;;;15.20;10.10;;;;;;;;;;109573;1253;61668;-79
2023/12/12 04:54:33;;;;;;;15.60;9.70;;;;;;;;;;109584;1251;58852;-79
2023/12/12 04:56:59;;;;;;;10.30;6.90;;;;;;;;;;109536;1252;59096;-79
2023/12/12 04:59:26;;;;;;;9.50;6.10;;;;;;;;;;109475;1251;59265;-79
2023/12/12 05:01:52;;;;;;;8.40;5.70;;;;;;;;;;109474;1253;58710;-79
2023/12/12 05:04:19;;;;;;;6.10;4.40;;;;;;;;;;109461;1251;61859;-78
2023/12/12 05:06:46;;;;;;;8.10;5.00;;;;;;;;;;109459;1251;59269;-79
2023/12/12 05:09:12;;;;;;;7.70;5.00;;;;;;;;;;107832;1251;59679;-79
2023/12/12 05:11:39;;;;;;;8.10;4.50;;;;;;;;;;107064;1251;59797;-79
2023/12/12 05:14:06;;;;;;;8.10;4.90;;;;;;;;;;107067;1253;59210;-79
2023/12/12 05:16:32;;;;;;;10.20;5.20;;;;;;;;;;107218;1251;61951;-78
2023/12/12 05:18:59;;;;;;;23.60;14.90;;;;;;;;;;108188;1252;59546;-79
2023/12/12 05:21:26;;;;;;;14.70;9.50;;;;;;;;;;109464;1253;59562;-79
2023/12/12 05:23:52;;;;;;;12.50;8.60;;;;;;;;;;109537;1254;59117;-78
2023/12/12 05:26:19;;;;;;;10.70;8.10;;;;;;;;;;109560;1251;59201;-78
2023/12/12 05:28:46;;;;;;;22.50;15.80;;;;;;;;;;109595;1251;62701;-79
2023/12/12 05:31:12;;;;;;;12.60;8.80;;;;;;;;;;109569;1251;59572;-78
2023/12/12 05:33:39;;;;;;;13.50;8.10;;;;;;;;;;109569;1251;58949;-79
2023/12/12 05:36:06;;;;;;;12.70;8.80;;;;;;;;;;109527;1251;58886;-78
2023/12/12 05:38:32;;;;;;;13.90;8.60;;;;;;;;;;109584;1251;59181;-78
2023/12/12 05:40:59;;;;;;;10.20;7.70;;;;;;;;;;109568;1253;61804;-79
2023/12/12 05:43:25;;;;;;;12.10;8.60;;;;;;;;;;109552;1253;59004;-78
2023/12/12 05:45:52;;;;;;;19.30;12.00;;;;;;;;;;109564;1251;59203;-78
2023/12/12 05:48:18;;;;;;;13.90;8.50;;;;;;;;;;109576;1253;59134;-78
2023/12/12 05:50:45;;;;;;;15.20;9.20;;;;;;;;;;109590;1251;58746;-79
2023/12/12 05:53:11;;;;;;;15.30;11.50;;;;;;;;;;109629;1250;62211;-79
2023/12/12 05:55:38;;;;;;;16.50;11.00;;;;;;;;;;109581;1251;59095;-79
2023/12/12 05:58:04;;;;;;;9.50;6.80;;;;;;;;;;109522;1251;59314;-79
2023/12/12 06:00:31;;;;;;;12.30;6.90;;;;;;;;;;109471;1251;59067;-79
2023/12/12 06:02:57;;;;;;;9.10;5.80;;;;;;;;;;109470;1251;58919;-79
2023/12/12 06:05:24;;;;;;;9.50;5.70;;;;;;;;;;109086;1251;62901;-79
2023/12/12 06:07:51;;;;;;;10.40;5.60;;;;;;;;;;107432;1253;60932;-79
2023/12/12 06:10:18;;;;;;;11.20;5.20;;;;;;;;;;107053;1253;61054;-78
2023/12/12 06:12:45;;;;;;;7.80;4.70;;;;;;;;;;107111;1253;60905;-79
2023/12/12 06:15:11;;;;;;;10.70;7.00;;;;;;;;;;107261;1254;59806;-79
2023/12/12 06:17:38;;;;;;;13.80;5.90;;;;;;;;;;107303;1251;61625;-78
2023/12/12 06:20:05;;;;;;;11.10;6.80;;;;;;;;;;107180;1253;61416;-79
2023/12/12 06:22:31;;;;;;;13.60;8.40;;;;;;;;;;107156;1251;60009;-79
2023/12/12 06:24:58;;;;;;;10.30;6.70;;;;;;;;;;107698;1252;59697;-79
2023/12/12 06:27:24;;;;;;;12.80;7.10;;;;;;;;;;109552;1253;58841;-79
2023/12/12 06:29:51;;;;;;;9.90;6.20;;;;;;;;;;109523;1251;59334;-79
2023/12/12 06:32:19;;;;;;;10.00;6.50;;;;;;;;;;109434;1251;163383;-79
2023/12/12 06:34:45;;;;;;;8.00;5.90;;;;;;;;;;109488;1251;58851;-79
2023/12/12 06:37:12;;;;;;;9.80;5.90;;;;;;;;;;109519;1251;58884;-79
2023/12/12 06:39:38;;;;;;;10.80;6.00;;;;;;;;;;109560;1251;58945;-79
2023/12/12 06:42:05;;;;;;;11.80;5.80;;;;;;;;;;109579;1252;59267;-79
2023/12/12 06:44:31;;;;;;;15.30;8.20;;;;;;;;;;108345;1252;60888;-78
2023/12/12 06:46:58;;;;;;;14.50;9.30;;;;;;;;;;107064;1251;59751;-79
2023/12/12 06:49:24;;;;;;;10.60;5.50;;;;;;;;;;107031;1250;60936;-79
2023/12/12 06:51:51;;;;;;;16.60;7.90;;;;;;;;;;107009;1250;59747;-79
2023/12/12 06:54:17;;;;;;;11.70;8.30;;;;;;;;;;107077;1251;59884;-78
2023/12/12 06:56:43;;;;;;;9.70;5.70;;;;;;;;;;106985;1252;59622;-79
2023/12/12 06:59:10;;;;;;;12.90;7.30;;;;;;;;;;106965;1253;59256;-79
2023/12/12 07:01:36;;;;;;;12.20;6.40;;;;;;;;;;107267;1252;59942;-79
2023/12/12 07:04:03;;;;;;;13.40;6.70;;;;;;;;;;107101;1253;59828;-79
2023/12/12 07:06:29;;;;;;;11.10;6.10;;;;;;;;;;107073;1252;59840;-79
2023/12/12 07:08:57;;;;;;;15.00;10.40;;;;;;;;;;107489;1255;59767;-80
2023/12/12 07:11:24;;;;;;;19.30;10.20;;;;;;;;;;107144;1252;60990;-79
2023/12/12 07:13:51;;;;;;;17.70;12.50;;;;;;;;;;107179;1253;60843;-79
2023/12/12 07:16:18;;;;;;;13.20;9.70;;;;;;;;;;107329;1253;61181;-79
2023/12/12 07:18:44;;;;;;;15.80;10.00;;;;;;;;;;107190;1251;60940;-79
2023/12/12 07:21:14;;;;;;;14.00;7.90;;;;;;;;;;107229;1255;59822;-78
2023/12/12 07:23:41;;;;;;;13.80;7.20;;;;;;;;;;107169;1256;60026;-78
2023/12/12 07:26:07;;;;;;;9.20;8.10;;;;;;;;;;107132;1252;60920;-79
2023/12/12 07:28:34;;;;;;;11.50;6.00;;;;;;;;;;107164;1255;60802;-79
2023/12/12 07:31:02;;;;;;;17.10;7.30;;;;;;;;;;107444;1253;60233;-78
2023/12/12 07:33:29;;;;;;;91.60;38.50;;;;;;;;;;107068;1251;59819;-79
2023/12/12 07:35:55;;;;;;;190.90;77.20;;;;;;;;;;107269;1253;60895;-78
2023/12/12 07:38:21;;;;;;;24.30;13.00;;;;;;;;;;107315;1252;59803;-79
2023/12/12 07:40:48;;;;;;;27.60;13.60;;;;;;;;;;107212;1251;60907;-79
2023/12/12 07:43:14;;;;;;;19.70;10.50;;;;;;;;;;107465;1253;59715;-78
2023/12/12 07:45:41;;;;;;;12.60;8.80;;;;;;;;;;107451;1255;60326;-79
2023/12/12 07:48:07;;;;;;;36.80;16.20;;;;;;;;;;107588;1253;59842;-79
2023/12/12 07:50:34;;;;;;;13.00;7.90;;;;;;;;;;107663;1253;59953;-79
2023/12/12 07:53:00;;;;;;;11.80;6.60;;;;;;;;;;107766;1252;60825;-79
2023/12/12 07:55:27;;;;;;;35.20;17.50;;;;;;;;;;107651;1252;61103;-80
2023/12/12 07:57:53;;;;;;;17.90;10.50;;;;;;;;;;107750;1253;59296;-80
2023/12/12 08:00:20;;;;;;;14.70;7.60;;;;;;;;;;109473;1254;59185;-80
2023/12/12 08:02:46;;;;;;;30.40;14.50;;;;;;;;;;109497;1254;58999;-80
2023/12/12 08:05:13;;;;;;;12.30;7.80;;;;;;;;;;109497;1251;59035;-80
2023/12/12 08:07:39;;;;;;;12.20;8.30;;;;;;;;;;109511;1253;59172;-80
2023/12/12 08:10:06;;;;;;;11.50;8.10;;;;;;;;;;109486;1251;58871;-78
2023/12/12 08:12:33;;;;;;;10.30;6.90;;;;;;;;;;109510;1251;59295;-78
2023/12/12 08:14:59;;;;;;;12.00;7.70;;;;;;;;;;109473;1251;59146;-78
2023/12/12 08:17:26;;;;;;;10.10;8.30;;;;;;;;;;109534;1251;59079;-78
2023/12/12 08:19:53;;;;;;;14.30;9.70;;;;;;;;;;109503;1251;61870;-78
2023/12/12 08:22:19;;;;;;;7.90;5.00;;;;;;;;;;109386;1251;59296;-77
2023/12/12 08:24:50;;;;;;;11.50;8.10;;;;;;;;;;109510;1253;59021;-78
2023/12/12 08:27:18;;;;;;;9.50;6.50;;;;;;;;;;109558;1251;58932;-77
2023/12/12 08:29:45;;;;;;;9.10;5.60;;;;;;;;;;109174;1251;59175;-78
2023/12/12 08:32:11;;;;;;;12.80;9.10;;;;;;;;;;108119;1251;61813;-78
2023/12/12 08:34:38;;;;;;;14.10;7.60;;;;;;;;;;108183;1253;59149;-78
2023/12/12 08:37:05;;;;;;;13.70;9.00;;;;;;;;;;108367;1253;60858;-78
2023/12/12 08:39:31;;;;;;;15.10;8.90;;;;;;;;;;108939;1251;59110;-78
2023/12/12 08:41:58;;;;;;;26.00;15.80;;;;;;;;;;109120;1251;59293;-78
2023/12/12 08:44:24;;;;;;;26.60;15.70;;;;;;;;;;109192;1251;61270;-78
2023/12/12 08:46:51;;;;;;;13.30;9.50;;;;;;;;;;108772;1253;59384;-77
2023/12/12 08:49:18;;;;;;;12.40;7.50;;;;;;;;;;108914;1253;59928;-78
2023/12/12 08:51:45;;;;;;;8.30;5.40;;;;;;;;;;107368;1253;60339;-78
2023/12/12 08:54:11;;;;;;;13.00;5.60;;;;;;;;;;108831;1253;59457;-78
2023/12/12 08:56:38;;;;;;;12.90;8.10;;;;;;;;;;108081;1253;59511;-78
2023/12/12 08:59:05;;;;;;;20.20;11.20;;;;;;;;;;107297;1251;59759;-78
2023/12/12 09:01:31;;;;;;;13.60;9.10;;;;;;;;;;107280;1251;60830;-78
2023/12/12 09:03:58;;;;;;;12.10;7.00;;;;;;;;;;107283;1254;59231;-78
2023/12/12 09:06:24;;;;;;;10.10;6.90;;;;;;;;;;107175;1253;59123;-77
2023/12/12 09:08:50;;;;;;;15.30;8.80;;;;;;;;;;107325;1254;59816;-78
2023/12/12 09:11:17;;;;;;;14.20;7.50;;;;;;;;;;107342;1253;60808;-78
2023/12/12 09:13:44;;;;;;;21.50;9.90;;;;;;;;;;107192;1255;59757;-78
2023/12/12 09:16:11;;;;;;;10.80;6.80;;;;;;;;;;107223;1253;59485;-78
2023/12/12 09:18:37;;;;;;;9.40;5.70;;;;;;;;;;107178;1256;60723;-78
2023/12/12 09:21:04;;;;;;;8.50;5.60;;;;;;;;;;107216;1251;59845;-78
2023/12/12 09:23:31;;;;;;;11.10;7.80;;;;;;;;;;109562;1251;59405;-78
2023/12/12 09:25:57;;;;;;;13.40;6.20;;;;;;;;;;109514;1250;59426;-78
2023/12/12 09:28:23;;;;;;;16.30;7.90;;;;;;;;;;107370;1251;61050;-77
2023/12/12 09:30:50;;;;;;;11.80;7.60;;;;;;;;;;107332;1253;59798;-78
2023/12/12 09:33:16;;;;;;;9.40;6.20;;;;;;;;;;107666;1250;59865;-78
2023/12/12 09:35:43;;;;;;;13.00;7.60;;;;;;;;;;109507;1252;59144;-78
2023/12/12 09:38:09;;;;;;;11.80;7.70;;;;;;;;;;109508;1251;60412;-78
2023/12/12 09:40:36;;;;;;;10.20;6.40;;;;;;;;;;109521;1253;59089;-78
2023/12/12 09:43:03;;;;;;;12.80;6.00;;;;;;;;;;108007;1251;59248;-77
2023/12/12 09:45:30;;;;;;;12.10;6.40;;;;;;;;;;107190;1253;62618;-78
2023/12/12 09:47:57;;;;;;;49.50;19.00;;;;;;;;;;107256;1251;60645;-77
2023/12/12 09:50:24;;;;;;;15.70;9.20;;;;;;;;;;107309;1251;60877;-78
2023/12/12 09:52:51;;;;;;;14.50;7.80;;;;;;;;;;107343;1252;59813;-77
2023/12/12 09:55:19;;;;;;;15.00;10.30;;;;;;;;;;107158;1253;59428;-78
2023/12/12 09:57:46;;;;;;;13.40;7.10;;;;;;;;;;107183;1251;61609;-78
2023/12/12 10:00:14;;;;;;;13.30;8.30;;;;;;;;;;109483;1251;59130;-78
2023/12/12 10:02:40;;;;;;;16.20;9.10;;;;;;;;;;109503;1251;60360;-79
2023/12/12 10:05:10;;;;;;;38.00;20.70;;;;;;;;;;109465;1250;59210;-79
2023/12/12 10:07:36;;;;;;;16.70;11.10;;;;;;;;;;109531;1251;58891;-79
2023/12/12 10:10:07;;;;;;;10.10;7.10;;;;;;;;;;109582;1250;61803;-79
2023/12/12 10:12:33;;;;;;;9.10;7.60;;;;;;;;;;109505;1251;59119;-79
2023/12/12 10:15:00;;;;;;;17.20;9.10;;;;;;;;;;109499;1251;59236;-79
2023/12/12 10:17:27;;;;;;;11.60;7.50;;;;;;;;;;109544;1250;59094;-79
2023/12/12 10:20:00;;;;;;;10.40;7.50;;;;;;;;;;109524;1251;58879;-79
2023/12/12 10:22:32;;;;;;;10.60;6.00;;;;;;;;;;109479;1255;60921;-79
2023/12/12 10:25:10;;;;;;;11.80;8.10;;;;;;;;;;109533;1251;59207;-79
2023/12/12 10:27:39;;;;;;;16.40;6.90;;;;;;;;;;109503;1253;60222;-79
2023/12/12 10:30:06;;;;;;;12.90;6.00;;;;;;;;;;109488;1251;59239;-79
2023/12/12 10:32:35;;;;;;;7.50;4.50;;;;;;;;;;109497;1254;58824;-79
2023/12/12 10:35:02;;;;;;;11.30;5.10;;;;;;;;;;109542;1255;61155;-78
2023/12/12 10:37:29;;;;;;;11.70;6.70;;;;;;;;;;107425;1253;61872;-79
2023/12/12 10:39:55;;;;;;;19.60;12.00;;;;;;;;;;108385;1253;60609;-81
2023/12/12 10:42:22;;;;;;;11.60;7.80;;;;;;;;;;107177;1255;62037;-80
2023/12/12 10:44:49;;;;;;;9.20;6.00;;;;;;;;;;107314;1251;59787;-79
2023/12/12 10:47:16;;;;;;;10.90;5.50;;;;;;;;;;107267;1253;61577;-79
2023/12/12 10:49:45;;;;;;;10.60;5.10;;;;;;;;;;107297;1251;62033;-78
2023/12/12 10:52:11;;;;;;;16.40;7.30;;;;;;;;;;107288;1255;62088;-79
2023/12/12 10:54:39;;;;;;;17.20;8.40;;;;;;;;;;107265;1256;59657;-79
2023/12/12 10:57:06;;;;;;;18.40;10.50;;;;;;;;;;107403;1255;63416;-79
2023/12/12 10:59:32;;;;;;;23.20;13.40;;;;;;;;;;108196;1251;60880;-78
2023/12/12 11:01:59;;;;;;;10.10;7.90;;;;;;;;;;109412;1254;61857;-78
2023/12/12 11:04:25;;;;;;;11.10;8.50;;;;;;;;;;109432;1251;59161;-79
2023/12/12 11:06:52;;;;;;;19.30;10.00;;;;;;;;;;107646;1253;59813;-78
2023/12/12 11:09:21;;;;;;;13.20;5.60;;;;;;;;;;107538;1253;59750;-79
2023/12/12 11:11:48;;;;;;;7.90;4.60;;;;;;;;;;107424;1255;61961;-79
2023/12/12 11:14:15;;;;;;;10.30;7.00;;;;;;;;;;107631;1254;60929;-78
2023/12/12 11:16:42;;;;;;;30.90;14.80;;;;;;;;;;107444;1256;60155;-78
2023/12/12 11:19:16;;;;;;;13.40;7.50;;;;;;;;;;107238;1251;60796;-78
2023/12/12 11:21:43;;;;;;;29.50;16.50;;;;;;;;;;107237;1251;59787;-79
2023/12/12 11:24:10;;;;;;;41.90;21.40;;;;;;;;;;107525;1251;61686;-79
2023/12/12 11:26:36;;;;;;;30.30;13.60;;;;;;;;;;107345;1257;61301;-79
2023/12/12 11:29:06;;;;;;;24.80;11.50;;;;;;;;;;107535;1251;60749;-79
2023/12/12 11:31:33;;;;;;;12.80;7.60;;;;;;;;;;107189;1252;59772;-79
2023/12/12 11:34:00;;;;;;;19.60;8.40;;;;;;;;;;107375;1251;61581;-79
2023/12/12 11:36:27;;;;;;;50.50;22.20;;;;;;;;;;107369;1251;62652;-79
2023/12/12 11:39:00;;;;;;;19.00;10.10;;;;;;;;;;107272;1251;59809;-79
2023/12/12 11:41:27;;;;;;;50.60;23.30;;;;;;;;;;107174;1251;60681;-79
2023/12/12 11:43:54;;;;;;;30.70;13.90;;;;;;;;;;107236;1254;59854;-79
2023/12/12 11:46:21;;;;;;;22.10;10.80;;;;;;;;;;107402;1251;59835;-79
2023/12/12 11:48:47;;;;;;;10.00;5.30;;;;;;;;;;107538;1251;62591;-80
2023/12/12 11:51:32;;;;;;;18.10;11.40;;;;;;;;;;107451;1251;59967;-79
2023/12/12 11:54:03;;;;;;;36.50;21.50;;;;;;;;;;107402;1254;60894;-79
2023/12/12 11:56:30;;;;;;;30.00;16.80;;;;;;;;;;107557;1252;59681;-80
2023/12/12 11:58:58;;;;;;;113.70;52.40;;;;;;;;;;107545;1257;59883;-79
2023/12/12 12:01:26;;;;;;;53.10;25.60;;;;;;;;;;107447;1251;62530;-79
2023/12/12 12:03:52;;;;;;;50.60;25.40;;;;;;;;;;108690;1251;59844;-79
2023/12/12 12:06:20;;;;;;;21.00;12.30;;;;;;;;;;107216;1251;59912;-80
2023/12/12 12:08:47;;;;;;;31.50;17.00;;;;;;;;;;107200;1251;59811;-81
2023/12/12 12:11:14;;;;;;;47.60;20.10;;;;;;;;;;107298;1251;59598;-81
2023/12/12 12:13:40;;;;;;;91.60;30.90;;;;;;;;;;107284;1254;59723;-78
2023/12/12 12:16:07;;;;;;;38.10;17.80;;;;;;;;;;107144;1254;59519;-79
2023/12/12 12:18:34;;;;;;;70.30;26.60;;;;;;;;;;107227;1251;59809;-78
2023/12/12 12:21:03;;;;;;;56.50;23.30;;;;;;;;;;107226;1251;59888;-80
2023/12/12 12:23:30;;;;;;;43.40;20.50;;;;;;;;;;107623;1251;60845;-79
2023/12/12 12:26:00;;;;;;;73.20;35.50;;;;;;;;;;107200;1251;62969;-78
2023/12/12 12:28:33;;;;;;;23.80;11.10;;;;;;;;;;107558;1251;59166;-79
2023/12/12 12:30:59;;;;;;;22.10;10.40;;;;;;;;;;107243;1251;59838;-81
2023/12/12 12:33:32;;;;;;;13.80;7.60;;;;;;;;;;107233;1251;60560;-81
2023/12/12 12:35:59;;;;;;;14.30;7.20;;;;;;;;;;107248;1251;61234;-80
2023/12/12 12:38:25;;;;;;;12.60;7.00;;;;;;;;;;107341;1251;60895;-79
2023/12/12 12:40:52;;;;;;;12.10;7.20;;;;;;;;;;107228;1251;59723;-79
2023/12/12 12:43:18;;;;;;;15.90;8.70;;;;;;;;;;107492;1251;60366;-79
2023/12/12 12:45:45;;;;;;;16.30;8.50;;;;;;;;;;108551;1251;59068;-79
2023/12/12 12:48:12;;;;;;;11.90;6.00;;;;;;;;;;108188;1251;59900;-79
2023/12/12 12:50:39;;;;;;;9.50;6.50;;;;;;;;;;109052;1251;62044;-79
2023/12/12 12:53:06;;;;;;;9.70;6.30;;;;;;;;;;109527;1251;58992;-78
2023/12/12 12:55:32;;;;;;;10.60;6.00;;;;;;;;;;108644;1251;59833;-78
2023/12/12 12:57:59;;;;;;;13.10;7.70;;;;;;;;;;107164;1251;60341;-78
2023/12/12 13:00:26;;;;;;;13.30;7.80;;;;;;;;;;107228;1251;61057;-78
2023/12/12 13:02:53;;;;;;;11.40;6.90;;;;;;;;;;107208;1251;60838;-78
2023/12/12 13:05:19;;;;;;;12.10;7.60;;;;;;;;;;108001;1251;59923;-79
2023/12/12 13:07:46;;;;;;;25.00;18.70;;;;;;;;;;107204;1254;60331;-79
2023/12/12 13:10:15;;;;;;;20.10;16.10;;;;;;;;;;107171;1251;59832;-79
2023/12/12 13:12:41;;;;;;;;;;;;;;;;;;107191;1251;62025;-79
2023/12/12 13:15:09;;;;;;;47.30;31.20;;;;;;;;;;107308;1252;61787;-79
2023/12/12 13:17:35;;;;;;;19.60;15.50;;;;;;;;;;107144;1251;59716;-79
2023/12/12 13:20:11;;;;;;;30.10;20.60;;;;;;;;;;107117;1254;60450;-79
2023/12/12 13:22:44;;;;;;;43.00;26.20;;;;;;;;;;107290;1251;60811;-79
2023/12/12 13:25:11;;;;;;;39.60;20.70;;;;;;;;;;107233;1252;59794;-79
2023/12/12 13:27:37;;;;;;;45.80;24.80;;;;;;;;;;107074;1251;61641;-79
2023/12/12 13:30:06;;;;;;;45.50;23.20;;;;;;;;;;107123;1251;59854;-79
2023/12/12 13:32:42;;;;;;;16.70;8.30;;;;;;;;;;107167;1256;60697;-79
2023/12/12 13:35:09;;;;;;;24.00;13.60;;;;;;;;;;107106;1251;60814;-79
2023/12/12 13:37:36;;;;;;;40.10;20.80;;;;;;;;;;109529;1251;59835;-79
2023/12/12 13:40:03;;;;;;;58.00;28.50;;;;;;;;;;109528;1251;61566;-79
2023/12/12 13:42:29;;;;;;;67.60;32.70;;;;;;;;;;108885;1251;59248;-79
2023/12/12 13:44:56;;;;;;;192.10;79.20;;;;;;;;;;107142;1251;59814;-79
2023/12/12 13:47:23;;;;;;;84.50;39.90;;;;;;;;;;107213;1251;59699;-79
2023/12/12 13:49:50;;;;;;;99.70;47.70;;;;;;;;;;107142;1254;59341;-79
2023/12/12 13:52:16;;;;;;;181.40;76.20;;;;;;;;;;107227;1251;62513;-79
2023/12/12 13:54:43;;;;;;;88.20;42.90;;;;;;;;;;107188;1251;59883;-79
2023/12/12 13:57:10;;;;;;;32.10;18.30;;;;;;;;;;107240;1251;60838;-79
2023/12/12 13:59:36;;;;;;;65.40;30.30;;;;;;;;;;107223;1251;59779;-79
2023/12/12 14:02:03;;;;;;;46.40;26.50;;;;;;;;;;107133;1251;59663;-79
2023/12/12 14:04:29;;;;;;;46.80;24.40;;;;;;;;;;107122;1251;59812;-79
2023/12/12 14:06:56;;;;;;;31.50;18.00;;;;;;;;;;107088;1254;59834;-79
2023/12/12 14:09:22;;;;;;;41.30;23.80;;;;;;;;;;107192;1251;60794;-79
2023/12/12 14:11:49;;;;;;;37.50;23.40;;;;;;;;;;107125;1251;60720;-79
2023/12/12 14:14:16;;;;;;;27.70;16.80;;;;;;;;;;107082;1251;59971;-79
2023/12/12 14:16:42;;;;;;;52.60;30.10;;;;;;;;;;107076;1251;60912;-79